createdAt,value
2022-11-25T00:01:19.164Z,99.90
2022-11-25T00:03:52.284Z,99.90
2022-11-25T00:06:29.551Z,99.90
2022-11-25T00:09:01.181Z,99.90
2022-11-25T00:11:43.131Z,99.90
2022-11-25T00:14:19.542Z,99.90
2022-11-25T00:16:51.518Z,99.90
2022-11-25T00:19:24.945Z,99.90
2022-11-25T00:21:59.215Z,99.90
2022-11-25T00:24:28.702Z,99.90
2022-11-25T00:26:59.412Z,99.90
2022-11-25T00:29:29.982Z,99.90
2022-11-25T00:31:59.954Z,99.90
2022-11-25T00:34:30.150Z,99.90
2022-11-25T00:36:58.513Z,99.90
2022-11-25T00:39:30.598Z,99.90
2022-11-25T00:42:21.749Z,99.90
2022-11-25T00:44:55.937Z,99.90
2022-11-25T00:47:28.638Z,99.90
2022-11-25T00:50:05.349Z,99.90
2022-11-25T00:52:40.347Z,99.90
2022-11-25T00:55:12.700Z,99.90
2022-11-25T00:57:43.324Z,99.90
2022-11-25T01:00:17.293Z,99.90
2022-11-25T01:02:51.510Z,99.90
2022-11-25T01:05:22.664Z,99.90
2022-11-25T01:07:52.962Z,99.90
2022-11-25T01:10:23.336Z,99.90
2022-11-25T01:12:58.342Z,99.90
2022-11-25T01:15:26.473Z,99.90
2022-11-25T01:17:58.395Z,99.90
2022-11-25T01:20:33.976Z,99.90
2022-11-25T01:23:10.235Z,99.90
2022-11-25T01:25:42.170Z,99.90
2022-11-25T01:28:26.738Z,99.90
2022-11-25T01:31:30.064Z,99.90
2022-11-25T01:34:12.075Z,99.90
2022-11-25T01:36:41.461Z,99.90
2022-11-25T01:39:32.927Z,99.90
2022-11-25T01:42:04.421Z,99.90
2022-11-25T01:44:36.342Z,99.90
2022-11-25T01:47:24.606Z,99.90
2022-11-25T01:50:11.107Z,99.90
2022-11-25T01:52:46.975Z,99.90
2022-11-25T01:55:32.167Z,99.90
2022-11-25T01:58:18.689Z,99.90
2022-11-25T02:00:54.262Z,99.90
2022-11-25T02:03:37.277Z,99.90
2022-11-25T02:06:44.475Z,99.90
2022-11-25T02:09:15.735Z,99.90
2022-11-25T02:11:49.961Z,99.90
2022-11-25T02:14:23.187Z,99.90
2022-11-25T02:16:54.828Z,99.90
2022-11-25T02:19:45.450Z,99.90
2022-11-25T02:22:27.534Z,99.90
2022-11-25T02:25:19.980Z,99.90
2022-11-25T02:28:00.034Z,99.90
2022-11-25T02:30:27.689Z,99.90
2022-11-25T02:33:02.620Z,99.90
2022-11-25T02:35:51.489Z,99.90
2022-11-25T02:38:38.205Z,99.90
2022-11-25T02:41:22.864Z,99.90
2022-11-25T02:43:58.879Z,99.90
2022-11-25T02:46:32.162Z,99.90
2022-11-25T02:49:09.260Z,99.90
2022-11-25T02:51:47.580Z,99.90
2022-11-25T02:54:18.478Z,99.90
2022-11-25T02:56:51.720Z,99.90
2022-11-25T02:59:21.956Z,99.90
2022-11-25T03:01:53.021Z,99.90
2022-11-25T03:04:28.254Z,99.90
2022-11-25T03:07:02.067Z,99.90
2022-11-25T03:09:33.090Z,99.90
2022-11-25T03:12:20.090Z,99.90
2022-11-25T03:14:51.219Z,99.90
2022-11-25T03:17:27.390Z,99.90
2022-11-25T03:19:58.054Z,99.90
2022-11-25T03:22:31.783Z,99.90
2022-11-25T03:25:03.102Z,99.90
2022-11-25T03:27:39.056Z,99.90
2022-11-25T03:30:36.431Z,99.90
2022-11-25T03:33:09.064Z,99.90
2022-11-25T03:35:40.298Z,99.90
2022-11-25T03:38:15.135Z,99.90
2022-11-25T03:40:47.222Z,99.90
2022-11-25T03:43:21.043Z,99.90
2022-11-25T03:45:50.441Z,99.90
2022-11-25T03:48:21.385Z,99.90
2022-11-25T03:50:53.180Z,99.90
2022-11-25T03:53:23.086Z,99.90
2022-11-25T03:55:52.320Z,99.90
2022-11-25T03:58:29.422Z,99.90
2022-11-25T04:01:07.097Z,99.90
2022-11-25T04:03:39.242Z,99.90
2022-11-25T04:06:11.130Z,99.90
2022-11-25T04:08:45.110Z,99.90
2022-11-25T04:11:14.463Z,99.90
2022-11-25T04:13:50.742Z,99.90
2022-11-25T04:16:26.578Z,99.90
2022-11-25T04:18:57.414Z,99.90
2022-11-25T04:21:28.899Z,99.90
2022-11-25T04:24:03.591Z,99.90
2022-11-25T04:26:37.019Z,99.90
2022-11-25T04:29:10.854Z,99.90
2022-11-25T04:31:41.498Z,99.90
2022-11-25T04:34:14.355Z,99.90
2022-11-25T04:36:47.082Z,99.90
2022-11-25T04:39:19.393Z,99.90
2022-11-25T04:41:49.495Z,99.90
2022-11-25T04:44:23.013Z,99.90
2022-11-25T04:46:58.620Z,99.90
2022-11-25T04:49:31.566Z,99.90
2022-11-25T04:52:00.737Z,99.90
2022-11-25T04:54:29.461Z,99.90
2022-11-25T04:57:02.315Z,99.90
2022-11-25T04:59:41.458Z,99.90
2022-11-25T05:02:20.972Z,99.90
2022-11-25T05:05:02.628Z,99.90
2022-11-25T05:07:35.745Z,99.90
2022-11-25T05:10:04.800Z,99.90
2022-11-25T05:12:52.750Z,99.90
2022-11-25T05:15:27.466Z,99.90
2022-11-25T05:17:57.106Z,99.90
2022-11-25T05:20:43.470Z,99.90
2022-11-25T05:23:23.263Z,99.90
2022-11-25T05:25:54.079Z,99.90
2022-11-25T05:28:30.314Z,99.90
2022-11-25T05:30:59.498Z,99.90
2022-11-25T05:33:31.862Z,99.90
2022-11-25T05:36:09.195Z,99.90
2022-11-25T05:38:46.196Z,99.90
2022-11-25T05:41:26.454Z,99.90
2022-11-25T05:44:03.446Z,99.90
2022-11-25T05:46:33.212Z,99.90
2022-11-25T05:49:03.436Z,99.90
2022-11-25T05:51:34.078Z,99.90
2022-11-25T05:54:09.517Z,99.90
2022-11-25T05:56:51.925Z,99.90
2022-11-25T05:59:43.706Z,99.90
2022-11-25T06:02:27.130Z,99.90
2022-11-25T06:05:00.668Z,99.90
2022-11-25T06:07:32.866Z,99.90
2022-11-25T06:10:04.733Z,99.90
2022-11-25T06:12:39.473Z,99.90
2022-11-25T06:15:08.765Z,99.90
2022-11-25T06:17:38.758Z,99.90
2022-11-25T06:20:15.792Z,99.90
2022-11-25T06:22:47.477Z,99.90
2022-11-25T06:25:27.100Z,99.90
2022-11-25T06:28:12.488Z,99.90
2022-11-25T06:30:44.934Z,99.90
2022-11-25T06:33:42.637Z,99.90
2022-11-25T06:36:17.381Z,99.90
2022-11-25T06:39:00.383Z,99.90
2022-11-25T06:41:28.917Z,99.90
2022-11-25T06:44:00.326Z,99.90
2022-11-25T06:46:27.690Z,99.90
2022-11-25T06:49:04.473Z,99.90
2022-11-25T06:51:35.937Z,99.90
2022-11-25T06:54:06.020Z,99.90
2022-11-25T06:56:36.959Z,99.90
2022-11-25T06:59:09.438Z,99.90
2022-11-25T07:01:40.365Z,99.90
2022-11-25T07:04:11.417Z,99.90
2022-11-25T07:06:43.302Z,99.90
2022-11-25T07:09:13.198Z,99.90
2022-11-25T07:11:42.494Z,99.90
2022-11-25T07:16:57.219Z,99.90
2022-11-25T07:19:27.176Z,99.90
2022-11-25T07:21:56.751Z,99.90
2022-11-25T07:24:25.550Z,99.90
2022-11-25T07:26:58.329Z,99.90
2022-11-25T07:32:22.945Z,99.90
2022-11-25T07:34:54.702Z,99.90
2022-11-25T07:37:24.508Z,99.90
2022-11-25T07:39:58.557Z,99.90
2022-11-25T07:42:30.762Z,99.90
2022-11-25T07:45:01.724Z,99.90
2022-11-25T07:47:55.873Z,99.90
2022-11-25T07:50:27.301Z,99.90
2022-11-25T07:52:56.612Z,99.90
2022-11-25T07:55:24.935Z,99.90
2022-11-25T07:57:55.479Z,99.90
2022-11-25T08:00:27.556Z,99.90
2022-11-25T08:02:59.259Z,99.90
2022-11-25T08:05:40.857Z,99.90
2022-11-25T08:08:14.147Z,99.90
2022-11-25T08:10:44.362Z,99.90
2022-11-25T08:13:13.908Z,99.90
2022-11-25T08:15:43.210Z,99.90
2022-11-25T08:18:15.643Z,99.90
2022-11-25T08:20:44.308Z,99.90
2022-11-25T08:23:16.413Z,99.90
2022-11-25T08:25:50.404Z,99.90
2022-11-25T08:28:27.237Z,99.90
2022-11-25T08:31:16.107Z,99.90
2022-11-25T08:33:47.911Z,99.90
2022-11-25T08:36:26.291Z,99.90
2022-11-25T08:39:28.971Z,99.90
2022-11-25T08:42:01.900Z,99.90
2022-11-25T08:44:32.459Z,99.90
2022-11-25T08:47:02.168Z,99.90
2022-11-25T08:49:39.111Z,99.90
2022-11-25T08:52:11.617Z,99.90
2022-11-25T08:54:47.342Z,99.90
2022-11-25T08:57:17.546Z,99.90
2022-11-25T08:59:48.069Z,99.90
2022-11-25T09:02:18.971Z,99.90
2022-11-25T09:04:50.334Z,99.90
2022-11-25T09:07:26.112Z,99.90
2022-11-25T09:09:57.409Z,99.90
2022-11-25T09:12:28.739Z,99.90
2022-11-25T09:14:56.881Z,99.90
2022-11-25T09:17:28.779Z,99.90
2022-11-25T09:19:59.084Z,99.90
2022-11-25T09:22:29.390Z,99.90
2022-11-25T09:25:00.170Z,99.90
2022-11-25T09:27:34.875Z,99.90
2022-11-25T09:30:06.049Z,99.90
2022-11-25T09:32:37.314Z,99.90
2022-11-25T09:35:37.432Z,99.90
2022-11-25T09:38:09.283Z,99.90
2022-11-25T09:41:08.842Z,99.90
2022-11-25T09:44:36.542Z,99.90
2022-11-25T09:47:31.954Z,99.90
2022-11-25T09:50:14.498Z,99.90
2022-11-25T09:53:21.142Z,99.90
2022-11-25T09:56:04.578Z,99.90
2022-11-25T09:59:02.071Z,99.90
2022-11-25T10:01:33.302Z,99.90
2022-11-25T10:04:03.422Z,99.90
2022-11-25T10:06:54.899Z,99.90
2022-11-25T10:09:32.911Z,99.90
2022-11-25T10:12:15.740Z,99.90
2022-11-25T10:14:49.822Z,99.90
2022-11-25T10:17:51.030Z,99.90
2022-11-25T10:20:31.988Z,99.90
2022-11-25T10:23:02.596Z,99.90
2022-11-25T10:25:57.524Z,99.90
2022-11-25T10:28:34.393Z,99.90
2022-11-25T10:31:08.260Z,99.90
2022-11-25T10:34:03.745Z,99.90
2022-11-25T10:36:39.233Z,99.90
2022-11-25T10:39:33.805Z,99.90
2022-11-25T10:42:09.391Z,99.90
2022-11-25T10:44:43.883Z,99.90
2022-11-25T10:47:53.433Z,99.90
2022-11-25T10:50:49.507Z,99.90
2022-11-25T10:53:34.847Z,99.90
2022-11-25T10:56:19.083Z,99.90
2022-11-25T10:58:51.192Z,99.90
2022-11-25T11:01:33.722Z,99.90
2022-11-25T11:04:22.950Z,99.90
2022-11-25T11:07:06.654Z,99.90
2022-11-25T11:09:46.178Z,99.90
2022-11-25T11:12:18.343Z,99.90
2022-11-25T11:14:48.388Z,99.90
2022-11-25T11:17:37.967Z,99.90
2022-11-25T11:20:31.117Z,99.90
2022-11-25T11:23:14.603Z,99.90
2022-11-25T11:26:02.163Z,99.90
2022-11-25T11:28:41.470Z,99.90
2022-11-25T11:31:23.669Z,99.90
2022-11-25T11:34:03.709Z,99.90
2022-11-25T11:36:54.429Z,99.90
2022-11-25T11:39:41.653Z,99.90
2022-11-25T11:42:16.470Z,99.90
2022-11-25T11:45:13.316Z,99.90
2022-11-25T11:47:52.728Z,99.90
2022-11-25T11:50:35.548Z,99.90
2022-11-25T11:53:30.676Z,99.90
2022-11-25T11:56:34.365Z,99.90
2022-11-25T11:59:15.773Z,99.90
2022-11-25T12:02:16.672Z,99.90
2022-11-25T12:05:14.421Z,99.90
2022-11-25T12:08:09.759Z,99.90
2022-11-25T12:11:13.972Z,99.90
2022-11-25T12:14:01.196Z,99.90
2022-11-25T12:16:54.529Z,99.90
2022-11-25T12:19:58.469Z,99.90
2022-11-25T12:22:45.223Z,99.90
2022-11-25T12:25:20.025Z,99.90
2022-11-25T12:28:15.467Z,99.90
2022-11-25T12:31:31.681Z,99.90
2022-11-25T12:34:43.631Z,99.90
2022-11-25T12:37:18.651Z,99.90
2022-11-25T12:40:05.628Z,99.90
2022-11-25T12:42:39.754Z,99.90
2022-11-25T12:45:24.369Z,99.90
2022-11-25T12:47:54.560Z,99.90
2022-11-25T12:50:39.190Z,99.90
2022-11-25T12:53:33.249Z,98.90
2022-11-25T12:56:09.286Z,96.10
2022-11-25T12:58:55.055Z,96.80
2022-11-25T13:01:51.173Z,97.70
2022-11-25T13:05:39.033Z,98.40
2022-11-25T13:08:40.390Z,97.30
2022-11-25T13:11:42.536Z,94.40
2022-11-25T13:15:11.297Z,96.50
2022-11-25T13:17:46.154Z,98.70
2022-11-25T13:20:35.047Z,99.60
2022-11-25T13:23:34.512Z,99.90
2022-11-25T13:26:37.309Z,99.90
2022-11-25T13:29:29.536Z,99.90
2022-11-25T13:32:27.784Z,99.90
2022-11-25T13:35:35.292Z,99.90
2022-11-25T13:38:20.202Z,99.90
2022-11-25T13:40:56.247Z,99.90
2022-11-25T13:43:25.520Z,99.90
2022-11-25T13:45:59.046Z,99.90
2022-11-25T13:48:39.973Z,99.90
2022-11-25T13:51:30.006Z,99.90
2022-11-25T13:54:05.956Z,99.90
2022-11-25T13:56:39.110Z,99.90
2022-11-25T13:59:21.884Z,99.90
2022-11-25T14:01:53.635Z,99.90
2022-11-25T14:05:10.617Z,99.90
2022-11-25T14:08:10.573Z,99.90
2022-11-25T14:10:57.873Z,99.90
2022-11-25T14:14:19.726Z,99.90
2022-11-25T14:17:29.545Z,99.90
2022-11-25T14:20:36.787Z,99.90
2022-11-25T14:23:22.471Z,99.90
2022-11-25T14:25:54.434Z,99.90
2022-11-25T14:28:50.258Z,99.90
2022-11-25T14:31:27.729Z,99.90
2022-11-25T14:34:01.688Z,99.90
2022-11-25T14:36:42.972Z,99.90
2022-11-25T14:39:43.753Z,99.90
2022-11-25T14:42:20.162Z,99.90
2022-11-25T14:45:05.021Z,99.90
2022-11-25T14:47:38.994Z,99.90
2022-11-25T14:50:34.262Z,99.90
2022-11-25T14:53:12.173Z,99.90
2022-11-25T14:55:42.955Z,99.90
2022-11-25T14:58:14.422Z,99.90
2022-11-25T15:01:03.227Z,99.90
2022-11-25T15:03:34.996Z,99.90
2022-11-25T15:06:08.451Z,99.90
2022-11-25T15:09:03.417Z,99.90
2022-11-25T15:11:38.326Z,99.90
2022-11-25T15:14:07.942Z,99.90
2022-11-25T15:16:43.692Z,99.90
2022-11-25T15:19:26.963Z,99.90
2022-11-25T15:25:09.629Z,99.90
2022-11-25T15:27:54.575Z,99.90
2022-11-25T15:30:30.085Z,99.90
2022-11-25T15:33:09.255Z,99.90
2022-11-25T15:35:43.279Z,99.90
2022-11-25T15:38:49.901Z,99.90
2022-11-25T15:41:40.754Z,99.90
2022-11-25T15:44:32.673Z,99.90
2022-11-25T15:47:23.944Z,99.90
2022-11-25T15:50:04.953Z,99.90
2022-11-25T15:52:40.618Z,99.90
2022-11-25T15:55:44.330Z,99.90
2022-11-25T15:58:35.678Z,99.90
2022-11-25T16:01:42.317Z,99.90
2022-11-25T16:04:15.226Z,99.90
2022-11-25T16:06:59.961Z,99.90
2022-11-25T16:12:18.850Z,99.90
2022-11-25T16:14:51.134Z,99.90
2022-11-25T16:17:21.799Z,99.90
2022-11-25T16:19:52.714Z,99.90
2022-11-25T16:22:23.147Z,99.90
2022-11-25T16:25:01.811Z,99.90
2022-11-25T16:27:39.145Z,99.90
2022-11-25T16:30:24.751Z,99.90
2022-11-25T16:32:55.848Z,99.90
2022-11-25T16:35:27.938Z,99.90
2022-11-25T16:37:58.481Z,99.90
2022-11-25T16:40:32.361Z,99.90
2022-11-25T16:43:04.784Z,99.90
2022-11-25T16:45:34.595Z,99.90
2022-11-25T16:48:03.698Z,99.90
2022-11-25T16:50:34.756Z,99.90
2022-11-25T16:53:05.591Z,99.90
2022-11-25T16:55:48.526Z,99.90
2022-11-25T16:58:33.495Z,99.90
2022-11-25T17:01:06.017Z,99.90
2022-11-25T17:03:36.845Z,99.90
2022-11-25T17:06:22.383Z,99.90
2022-11-25T17:08:54.978Z,99.90
2022-11-25T17:11:46.113Z,99.90
2022-11-25T17:14:33.248Z,99.90
2022-11-25T17:17:04.965Z,99.90
2022-11-25T17:19:40.445Z,99.90
2022-11-25T17:22:31.244Z,99.90
2022-11-25T17:25:05.181Z,99.90
2022-11-25T17:27:33.863Z,99.90
2022-11-25T17:30:07.305Z,99.90
2022-11-25T17:32:38.559Z,99.90
2022-11-25T17:35:27.522Z,99.90
2022-11-25T17:38:00.036Z,99.90
2022-11-25T17:40:35.414Z,99.90
2022-11-25T17:43:07.063Z,99.90
2022-11-25T17:45:39.168Z,99.90
2022-11-25T17:48:14.896Z,99.90
2022-11-25T17:50:50.329Z,99.90
2022-11-25T17:53:25.320Z,99.90
2022-11-25T17:55:55.360Z,99.90
2022-11-25T17:58:26.389Z,99.90
2022-11-25T18:00:57.060Z,99.90
2022-11-25T18:03:28.986Z,99.90
2022-11-25T18:05:58.819Z,99.90
2022-11-25T18:08:29.848Z,99.90
2022-11-25T18:11:02.083Z,99.90
2022-11-25T18:13:45.213Z,99.90
2022-11-25T18:16:19.940Z,99.90
2022-11-25T18:18:51.166Z,99.90
2022-11-25T18:24:10.469Z,99.90
2022-11-25T18:26:59.870Z,99.90
2022-11-25T18:29:32.507Z,99.90
2022-11-25T18:32:07.742Z,99.90
2022-11-25T18:34:36.565Z,99.90
2022-11-25T18:37:06.922Z,99.90
2022-11-25T18:39:37.617Z,99.90
2022-11-25T18:42:18.206Z,99.90
2022-11-25T18:44:50.999Z,99.90
2022-11-25T18:47:23.592Z,99.90
2022-11-25T18:49:56.597Z,99.90
2022-11-25T18:52:25.109Z,99.90
2022-11-25T18:54:56.847Z,99.90
2022-11-25T18:57:28.120Z,99.90
2022-11-25T19:00:24.827Z,99.90
2022-11-25T19:02:55.266Z,99.90
2022-11-25T19:05:29.634Z,99.90
2022-11-25T19:08:02.732Z,99.90
2022-11-25T19:10:37.237Z,99.90
2022-11-25T19:13:28.485Z,99.90
2022-11-25T19:16:06.162Z,99.90
2022-11-25T19:18:35.671Z,99.90
2022-11-25T19:21:07.433Z,99.90
2022-11-25T19:23:38.986Z,99.90
2022-11-25T19:26:23.329Z,99.90
2022-11-25T19:29:05.029Z,99.90
2022-11-25T19:31:40.481Z,99.90
2022-11-25T19:34:23.554Z,99.90
2022-11-25T19:36:53.941Z,99.90
2022-11-25T19:39:24.628Z,99.90
2022-11-25T19:41:54.274Z,99.90
2022-11-25T19:44:30.058Z,99.90
2022-11-25T19:47:14.941Z,99.90
2022-11-25T19:49:48.315Z,99.90
2022-11-25T19:52:39.400Z,99.90
2022-11-25T19:55:36.271Z,99.90
2022-11-25T19:58:05.429Z,99.90
2022-11-25T20:00:38.055Z,99.90
2022-11-25T20:03:21.404Z,99.90
2022-11-25T20:05:56.195Z,99.90
2022-11-25T20:08:31.179Z,99.90
2022-11-25T20:11:00.903Z,99.90
2022-11-25T20:13:32.229Z,99.90
2022-11-25T20:16:02.223Z,99.90
2022-11-25T20:18:31.471Z,99.90
2022-11-25T20:21:12.888Z,99.90
2022-11-25T20:26:44.288Z,99.90
2022-11-25T20:29:30.383Z,99.90
2022-11-25T20:32:02.252Z,99.90
2022-11-25T20:40:17.181Z,99.90
2022-11-25T20:42:53.738Z,99.90
2022-11-25T20:45:27.532Z,99.90
2022-11-25T20:48:00.920Z,99.90
2022-11-25T20:50:33.245Z,99.90
2022-11-25T20:53:01.985Z,99.90
2022-11-25T20:55:37.093Z,99.90
2022-11-25T20:58:34.812Z,99.90
2022-11-25T21:01:05.691Z,99.90
2022-11-25T21:03:38.915Z,99.90
2022-11-25T21:06:37.829Z,99.90
2022-11-25T21:09:23.692Z,99.90
2022-11-25T21:11:55.828Z,99.90
2022-11-25T21:14:29.854Z,99.90
2022-11-25T21:17:00.824Z,99.90
2022-11-25T21:19:28.665Z,99.90
2022-11-25T21:21:59.769Z,99.90
2022-11-25T21:24:42.851Z,99.90
2022-11-25T21:27:15.221Z,99.90
2022-11-25T21:29:49.103Z,99.90
2022-11-25T21:32:25.752Z,99.90
2022-11-25T21:34:54.993Z,99.90
2022-11-25T21:37:31.779Z,99.90
2022-11-25T21:40:00.638Z,99.90
2022-11-25T21:42:35.603Z,99.90
2022-11-25T21:45:09.472Z,99.90
2022-11-25T21:47:41.749Z,99.90
2022-11-25T21:50:32.446Z,99.90
2022-11-25T21:53:01.777Z,99.90
2022-11-25T21:58:28.998Z,99.90
2022-11-25T22:01:04.152Z,99.90
2022-11-25T22:03:35.142Z,99.90
2022-11-25T22:06:05.628Z,99.90
2022-11-25T22:08:39.328Z,99.90
2022-11-25T22:11:21.068Z,99.90
2022-11-25T22:13:52.543Z,99.90
2022-11-25T22:16:33.455Z,99.90
2022-11-25T22:19:02.495Z,99.90
2022-11-25T22:21:34.516Z,99.90
2022-11-25T22:24:16.725Z,99.90
2022-11-25T22:26:57.799Z,99.90
2022-11-25T22:29:47.274Z,99.90
2022-11-25T22:32:26.058Z,99.90
2022-11-25T22:34:56.130Z,99.90
2022-11-25T22:37:28.321Z,99.90
2022-11-25T22:39:58.757Z,99.90
2022-11-25T22:42:33.790Z,99.90
2022-11-25T22:45:06.086Z,99.90
2022-11-25T22:47:47.048Z,99.90
2022-11-25T22:50:34.604Z,99.90
2022-11-25T22:53:05.494Z,99.90
2022-11-25T22:55:59.166Z,99.90
2022-11-25T22:58:30.038Z,99.90
2022-11-25T23:01:06.359Z,99.90
2022-11-25T23:03:37.248Z,99.90
2022-11-25T23:06:19.548Z,99.90
2022-11-25T23:08:50.283Z,99.90
2022-11-25T23:11:20.753Z,99.90
2022-11-25T23:13:54.707Z,99.90
2022-11-25T23:16:26.761Z,99.90
2022-11-25T23:18:57.873Z,99.90
2022-11-25T23:27:01.030Z,99.90
2022-11-25T23:29:35.838Z,99.90
2022-11-25T23:32:09.025Z,99.90
2022-11-25T23:34:40.608Z,99.90
2022-11-25T23:37:12.835Z,99.90
2022-11-25T23:39:43.039Z,99.90
2022-11-25T23:42:27.805Z,99.90
2022-11-25T23:44:57.569Z,99.90
2022-11-25T23:47:28.426Z,99.90
2022-11-25T23:50:00.951Z,99.90
2022-11-25T23:52:33.551Z,99.90
2022-11-25T23:55:04.467Z,99.90
